sensor_id;sensor_type;location;lat;lon;timestamp;temperature;humidity
11284;DHT22;5698;47.332;11.180;2022-09-09T00:00:48;11.50;99.90
11284;DHT22;5698;47.332;11.180;2022-09-09T00:03:19;11.50;99.90
11284;DHT22;5698;47.332;11.180;2022-09-09T00:05:54;11.40;99.90
11284;DHT22;5698;47.332;11.180;2022-09-09T00:08:31;11.40;99.90
11284;DHT22;5698;47.332;11.180;2022-09-09T00:11:05;11.40;99.90
11284;DHT22;5698;47.332;11.180;2022-09-09T00:13:38;11.50;99.90
11284;DHT22;5698;47.332;11.180;2022-09-09T00:16:16;11.50;99.90
11284;DHT22;5698;47.332;11.180;2022-09-09T00:18:53;11.50;99.90
11284;DHT22;5698;47.332;11.180;2022-09-09T00:21:23;11.40;99.90
11284;DHT22;5698;47.332;11.180;2022-09-09T00:23:54;11.40;99.90
11284;DHT22;5698;47.332;11.180;2022-09-09T00:26:29;11.40;99.90
11284;DHT22;5698;47.332;11.180;2022-09-09T00:29:04;11.40;99.90
11284;DHT22;5698;47.332;11.180;2022-09-09T00:31:33;11.50;99.90
11284;DHT22;5698;47.332;11.180;2022-09-09T00:34:08;11.50;99.90
11284;DHT22;5698;47.332;11.180;2022-09-09T00:36:36;11.50;99.90
11284;DHT22;5698;47.332;11.180;2022-09-09T00:39:04;11.60;99.90
11284;DHT22;5698;47.332;11.180;2022-09-09T00:41:40;11.60;99.90
11284;DHT22;5698;47.332;11.180;2022-09-09T00:44:21;11.60;99.90
11284;DHT22;5698;47.332;11.180;2022-09-09T00:47:09;11.70;99.90
11284;DHT22;5698;47.332;11.180;2022-09-09T00:49:45;11.70;99.90
11284;DHT22;5698;47.332;11.180;2022-09-09T00:52:26;11.70;99.90
11284;DHT22;5698;47.332;11.180;2022-09-09T00:55:04;11.60;99.90
11284;DHT22;5698;47.332;11.180;2022-09-09T00:57:34;11.70;99.90
11284;DHT22;5698;47.332;11.180;2022-09-09T01:00:19;11.60;99.90
11284;DHT22;5698;47.332;11.180;2022-09-09T01:02:53;11.50;99.90
11284;DHT22;5698;47.332;11.180;2022-09-09T01:05:33;11.50;99.90
11284;DHT22;5698;47.332;11.180;2022-09-09T01:08:02;11.50;99.90
11284;DHT22;5698;47.332;11.180;2022-09-09T01:10:39;11.60;99.90
11284;DHT22;5698;47.332;11.180;2022-09-09T01:13:13;11.60;99.90
11284;DHT22;5698;47.332;11.180;2022-09-09T01:15:42;11.70;99.90
11284;DHT22;5698;47.332;11.180;2022-09-09T01:18:13;11.70;99.90
11284;DHT22;5698;47.332;11.180;2022-09-09T01:20:49;11.80;99.90
11284;DHT22;5698;47.332;11.180;2022-09-09T01:23:46;11.80;99.90
11284;DHT22;5698;47.332;11.180;2022-09-09T01:26:31;11.80;99.90
11284;DHT22;5698;47.332;11.180;2022-09-09T01:29:00;11.90;99.90
11284;DHT22;5698;47.332;11.180;2022-09-09T01:31:29;11.90;99.90
11284;DHT22;5698;47.332;11.180;2022-09-09T01:33:58;11.90;99.90
11284;DHT22;5698;47.332;11.180;2022-09-09T01:36:31;11.80;99.90
11284;DHT22;5698;47.332;11.180;2022-09-09T01:39:00;11.80;99.90
11284;DHT22;5698;47.332;11.180;2022-09-09T01:41:29;11.80;99.90
11284;DHT22;5698;47.332;11.180;2022-09-09T01:43:57;11.80;99.90
11284;DHT22;5698;47.332;11.180;2022-09-09T01:46:24;11.80;99.90
11284;DHT22;5698;47.332;11.180;2022-09-09T01:48:52;11.80;99.90
11284;DHT22;5698;47.332;11.180;2022-09-09T01:51:19;11.70;99.90
11284;DHT22;5698;47.332;11.180;2022-09-09T01:53:46;11.60;99.90
11284;DHT22;5698;47.332;11.180;2022-09-09T01:56:22;11.50;99.90
11284;DHT22;5698;47.332;11.180;2022-09-09T01:59:04;11.40;99.90
11284;DHT22;5698;47.332;11.180;2022-09-09T02:01:41;11.40;99.90
11284;DHT22;5698;47.332;11.180;2022-09-09T02:04:23;11.50;99.90
11284;DHT22;5698;47.332;11.180;2022-09-09T02:06:55;11.60;99.90
11284;DHT22;5698;47.332;11.180;2022-09-09T02:09:24;11.60;99.90
11284;DHT22;5698;47.332;11.180;2022-09-09T02:11:56;11.60;99.90
11284;DHT22;5698;47.332;11.180;2022-09-09T02:14:30;11.70;99.90
11284;DHT22;5698;47.332;11.180;2022-09-09T02:17:01;11.70;99.90
11284;DHT22;5698;47.332;11.180;2022-09-09T02:19:32;11.70;99.90
11284;DHT22;5698;47.332;11.180;2022-09-09T02:22:02;11.70;99.90
11284;DHT22;5698;47.332;11.180;2022-09-09T02:24:33;11.80;99.90
11284;DHT22;5698;47.332;11.180;2022-09-09T02:27:03;11.80;99.90
11284;DHT22;5698;47.332;11.180;2022-09-09T02:29:38;11.80;99.90
11284;DHT22;5698;47.332;11.180;2022-09-09T02:32:11;11.70;99.90
11284;DHT22;5698;47.332;11.180;2022-09-09T02:34:42;11.70;99.90
11284;DHT22;5698;47.332;11.180;2022-09-09T02:37:10;11.70;99.90
11284;DHT22;5698;47.332;11.180;2022-09-09T02:39:37;11.60;99.90
11284;DHT22;5698;47.332;11.180;2022-09-09T02:42:05;11.60;99.90
11284;DHT22;5698;47.332;11.180;2022-09-09T02:44:35;11.60;99.90
11284;DHT22;5698;47.332;11.180;2022-09-09T02:47:18;11.60;99.90
11284;DHT22;5698;47.332;11.180;2022-09-09T02:49:58;11.60;99.90
11284;DHT22;5698;47.332;11.180;2022-09-09T02:52:36;11.60;99.90
11284;DHT22;5698;47.332;11.180;2022-09-09T02:55:10;11.60;99.90
11284;DHT22;5698;47.332;11.180;2022-09-09T02:57:39;11.70;99.90
11284;DHT22;5698;47.332;11.180;2022-09-09T03:00:10;11.70;99.90
11284;DHT22;5698;47.332;11.180;2022-09-09T03:02:38;11.70;99.90
11284;DHT22;5698;47.332;11.180;2022-09-09T03:05:06;11.70;99.90
11284;DHT22;5698;47.332;11.180;2022-09-09T03:07:33;11.60;99.90
11284;DHT22;5698;47.332;11.180;2022-09-09T03:10:00;11.50;99.90
11284;DHT22;5698;47.332;11.180;2022-09-09T03:12:27;11.60;99.90
11284;DHT22;5698;47.332;11.180;2022-09-09T03:14:54;11.60;99.90
11284;DHT22;5698;47.332;11.180;2022-09-09T03:17:22;11.60;99.90
11284;DHT22;5698;47.332;11.180;2022-09-09T03:19:50;11.50;99.90
11284;DHT22;5698;47.332;11.180;2022-09-09T03:22:20;11.50;99.90
11284;DHT22;5698;47.332;11.180;2022-09-09T03:24:46;11.50;99.90
11284;DHT22;5698;47.332;11.180;2022-09-09T03:27:13;11.50;99.90
11284;DHT22;5698;47.332;11.180;2022-09-09T03:29:41;11.50;99.90
11284;DHT22;5698;47.332;11.180;2022-09-09T03:32:08;11.50;99.90
11284;DHT22;5698;47.332;11.180;2022-09-09T03:34:37;11.50;99.90
11284;DHT22;5698;47.332;11.180;2022-09-09T03:37:05;11.40;99.90
11284;DHT22;5698;47.332;11.180;2022-09-09T03:39:32;11.30;99.90
11284;DHT22;5698;47.332;11.180;2022-09-09T03:41:59;11.30;99.90
11284;DHT22;5698;47.332;11.180;2022-09-09T03:44:29;11.30;99.90
11284;DHT22;5698;47.332;11.180;2022-09-09T03:46:56;11.40;99.90
11284;DHT22;5698;47.332;11.180;2022-09-09T03:49:26;11.40;99.90
11284;DHT22;5698;47.332;11.180;2022-09-09T03:51:55;11.40;99.90
11284;DHT22;5698;47.332;11.180;2022-09-09T03:54:24;11.40;99.90
11284;DHT22;5698;47.332;11.180;2022-09-09T03:56:51;11.50;99.90
11284;DHT22;5698;47.332;11.180;2022-09-09T03:59:18;11.50;99.90
11284;DHT22;5698;47.332;11.180;2022-09-09T04:01:46;11.50;99.90
11284;DHT22;5698;47.332;11.180;2022-09-09T04:04:14;11.50;99.90
11284;DHT22;5698;47.332;11.180;2022-09-09T04:06:41;11.50;99.90
11284;DHT22;5698;47.332;11.180;2022-09-09T04:09:09;11.50;99.90
11284;DHT22;5698;47.332;11.180;2022-09-09T04:11:36;11.40;99.90
11284;DHT22;5698;47.332;11.180;2022-09-09T04:14:03;11.40;99.90
11284;DHT22;5698;47.332;11.180;2022-09-09T04:16:31;11.40;99.90
11284;DHT22;5698;47.332;11.180;2022-09-09T04:18:58;11.30;99.90
11284;DHT22;5698;47.332;11.180;2022-09-09T04:21:26;11.30;99.90
11284;DHT22;5698;47.332;11.180;2022-09-09T04:23:53;11.30;99.90
11284;DHT22;5698;47.332;11.180;2022-09-09T04:26:22;11.30;99.90
11284;DHT22;5698;47.332;11.180;2022-09-09T04:28:49;11.30;99.90
11284;DHT22;5698;47.332;11.180;2022-09-09T04:31:17;11.30;99.90
11284;DHT22;5698;47.332;11.180;2022-09-09T04:33:45;11.30;99.90
11284;DHT22;5698;47.332;11.180;2022-09-09T04:36:13;11.30;99.90
11284;DHT22;5698;47.332;11.180;2022-09-09T04:38:40;11.30;99.90
11284;DHT22;5698;47.332;11.180;2022-09-09T04:41:08;11.30;99.90
11284;DHT22;5698;47.332;11.180;2022-09-09T04:43:37;11.30;99.90
11284;DHT22;5698;47.332;11.180;2022-09-09T04:46:05;11.40;99.90
11284;DHT22;5698;47.332;11.180;2022-09-09T04:48:32;11.30;99.90
11284;DHT22;5698;47.332;11.180;2022-09-09T04:51:00;11.20;99.90
11284;DHT22;5698;47.332;11.180;2022-09-09T04:53:28;11.10;99.90
11284;DHT22;5698;47.332;11.180;2022-09-09T04:56:01;11.20;99.90
11284;DHT22;5698;47.332;11.180;2022-09-09T04:58:29;11.20;99.90
11284;DHT22;5698;47.332;11.180;2022-09-09T05:01:06;11.00;99.90
11284;DHT22;5698;47.332;11.180;2022-09-09T05:03:33;10.80;99.90
11284;DHT22;5698;47.332;11.180;2022-09-09T05:06:05;10.80;99.90
11284;DHT22;5698;47.332;11.180;2022-09-09T05:08:34;10.80;99.90
11284;DHT22;5698;47.332;11.180;2022-09-09T05:11:01;10.70;99.90
11284;DHT22;5698;47.332;11.180;2022-09-09T05:13:29;10.60;99.90
11284;DHT22;5698;47.332;11.180;2022-09-09T05:15:57;10.50;99.90
11284;DHT22;5698;47.332;11.180;2022-09-09T05:18:26;10.50;99.90
11284;DHT22;5698;47.332;11.180;2022-09-09T05:20:58;10.50;99.90
11284;DHT22;5698;47.332;11.180;2022-09-09T05:23:25;10.50;99.90
11284;DHT22;5698;47.332;11.180;2022-09-09T05:25:57;10.40;99.90
11284;DHT22;5698;47.332;11.180;2022-09-09T05:28:24;10.50;99.90
11284;DHT22;5698;47.332;11.180;2022-09-09T05:30:58;10.50;99.90
11284;DHT22;5698;47.332;11.180;2022-09-09T05:33:27;10.60;99.90
11284;DHT22;5698;47.332;11.180;2022-09-09T05:35:58;10.60;99.90
11284;DHT22;5698;47.332;11.180;2022-09-09T05:38:27;10.70;99.90
11284;DHT22;5698;47.332;11.180;2022-09-09T05:40:54;10.70;99.90
11284;DHT22;5698;47.332;11.180;2022-09-09T05:43:22;10.60;99.90
11284;DHT22;5698;47.332;11.180;2022-09-09T05:45:59;10.50;99.90
11284;DHT22;5698;47.332;11.180;2022-09-09T05:48:29;10.50;99.90
11284;DHT22;5698;47.332;11.180;2022-09-09T05:50:57;10.60;99.90
11284;DHT22;5698;47.332;11.180;2022-09-09T05:53:25;10.60;99.90
11284;DHT22;5698;47.332;11.180;2022-09-09T05:55:59;10.70;99.90
11284;DHT22;5698;47.332;11.180;2022-09-09T05:58:26;10.70;99.90
11284;DHT22;5698;47.332;11.180;2022-09-09T06:00:59;10.80;99.90
11284;DHT22;5698;47.332;11.180;2022-09-09T06:03:28;10.90;99.90
11284;DHT22;5698;47.332;11.180;2022-09-09T06:05:59;11.00;99.90
11284;DHT22;5698;47.332;11.180;2022-09-09T06:08:26;11.10;99.90
11284;DHT22;5698;47.332;11.180;2022-09-09T06:10:53;11.20;99.90
11284;DHT22;5698;47.332;11.180;2022-09-09T06:13:21;11.20;99.90
11284;DHT22;5698;47.332;11.180;2022-09-09T06:15:50;11.20;99.90
11284;DHT22;5698;47.332;11.180;2022-09-09T06:18:18;11.20;99.90
11284;DHT22;5698;47.332;11.180;2022-09-09T06:20:55;11.20;99.90
11284;DHT22;5698;47.332;11.180;2022-09-09T06:23:22;11.20;99.90
11284;DHT22;5698;47.332;11.180;2022-09-09T06:25:49;11.20;99.90
11284;DHT22;5698;47.332;11.180;2022-09-09T06:28:16;11.20;99.90
11284;DHT22;5698;47.332;11.180;2022-09-09T06:30:44;11.30;99.90
11284;DHT22;5698;47.332;11.180;2022-09-09T06:33:12;11.30;99.90
11284;DHT22;5698;47.332;11.180;2022-09-09T06:35:39;11.30;99.90
11284;DHT22;5698;47.332;11.180;2022-09-09T06:38:07;11.40;99.90
11284;DHT22;5698;47.332;11.180;2022-09-09T06:40:35;11.40;99.90
11284;DHT22;5698;47.332;11.180;2022-09-09T06:43:02;11.50;99.90
11284;DHT22;5698;47.332;11.180;2022-09-09T06:45:29;11.60;99.90
11284;DHT22;5698;47.332;11.180;2022-09-09T06:47:56;11.60;99.90
11284;DHT22;5698;47.332;11.180;2022-09-09T06:50:23;11.60;99.90
11284;DHT22;5698;47.332;11.180;2022-09-09T06:52:50;11.60;99.90
11284;DHT22;5698;47.332;11.180;2022-09-09T06:55:19;11.60;99.90
11284;DHT22;5698;47.332;11.180;2022-09-09T06:57:46;11.70;99.90
11284;DHT22;5698;47.332;11.180;2022-09-09T07:00:14;11.70;99.90
11284;DHT22;5698;47.332;11.180;2022-09-09T07:02:41;11.70;99.90
11284;DHT22;5698;47.332;11.180;2022-09-09T07:05:08;11.70;99.90
11284;DHT22;5698;47.332;11.180;2022-09-09T07:07:36;11.70;99.90
11284;DHT22;5698;47.332;11.180;2022-09-09T07:10:04;11.70;99.90
11284;DHT22;5698;47.332;11.180;2022-09-09T07:12:32;11.80;99.90
11284;DHT22;5698;47.332;11.180;2022-09-09T07:14:59;11.70;99.90
11284;DHT22;5698;47.332;11.180;2022-09-09T07:17:27;11.70;99.90
11284;DHT22;5698;47.332;11.180;2022-09-09T07:19:54;11.70;99.90
11284;DHT22;5698;47.332;11.180;2022-09-09T07:22:22;11.70;99.90
11284;DHT22;5698;47.332;11.180;2022-09-09T07:24:50;11.60;99.90
11284;DHT22;5698;47.332;11.180;2022-09-09T07:27:17;11.50;99.90
11284;DHT22;5698;47.332;11.180;2022-09-09T07:29:45;11.50;99.90
11284;DHT22;5698;47.332;11.180;2022-09-09T07:32:12;11.50;99.90
11284;DHT22;5698;47.332;11.180;2022-09-09T07:34:39;11.40;99.90
11284;DHT22;5698;47.332;11.180;2022-09-09T07:37:06;11.40;99.90
11284;DHT22;5698;47.332;11.180;2022-09-09T07:39:33;11.30;99.90
11284;DHT22;5698;47.332;11.180;2022-09-09T07:42:00;11.30;99.90
11284;DHT22;5698;47.332;11.180;2022-09-09T07:44:27;11.30;99.90
11284;DHT22;5698;47.332;11.180;2022-09-09T07:46:56;11.20;99.90
11284;DHT22;5698;47.332;11.180;2022-09-09T07:49:23;11.20;99.90
11284;DHT22;5698;47.332;11.180;2022-09-09T07:51:50;11.20;99.90
11284;DHT22;5698;47.332;11.180;2022-09-09T07:54:18;11.20;99.90
11284;DHT22;5698;47.332;11.180;2022-09-09T07:56:46;11.30;99.90
11284;DHT22;5698;47.332;11.180;2022-09-09T07:59:15;11.30;99.90
11284;DHT22;5698;47.332;11.180;2022-09-09T08:01:43;11.30;99.90
11284;DHT22;5698;47.332;11.180;2022-09-09T08:04:14;11.30;99.90
11284;DHT22;5698;47.332;11.180;2022-09-09T08:06:43;11.30;99.90
11284;DHT22;5698;47.332;11.180;2022-09-09T08:09:12;11.30;99.90
11284;DHT22;5698;47.332;11.180;2022-09-09T08:11:40;11.30;99.90
11284;DHT22;5698;47.332;11.180;2022-09-09T08:14:08;11.40;99.90
11284;DHT22;5698;47.332;11.180;2022-09-09T08:16:38;11.40;99.90
11284;DHT22;5698;47.332;11.180;2022-09-09T08:19:06;11.40;99.90
11284;DHT22;5698;47.332;11.180;2022-09-09T08:21:36;11.60;99.90
11284;DHT22;5698;47.332;11.180;2022-09-09T08:24:04;11.60;99.90
11284;DHT22;5698;47.332;11.180;2022-09-09T08:26:33;11.70;99.90
11284;DHT22;5698;47.332;11.180;2022-09-09T08:29:02;11.90;99.90
11284;DHT22;5698;47.332;11.180;2022-09-09T08:31:31;11.90;99.90
11284;DHT22;5698;47.332;11.180;2022-09-09T08:34:00;12.00;99.90
11284;DHT22;5698;47.332;11.180;2022-09-09T08:36:30;12.00;99.90
11284;DHT22;5698;47.332;11.180;2022-09-09T08:39:00;12.00;99.90
11284;DHT22;5698;47.332;11.180;2022-09-09T08:41:43;12.10;99.90
11284;DHT22;5698;47.332;11.180;2022-09-09T08:44:22;12.10;99.90
11284;DHT22;5698;47.332;11.180;2022-09-09T08:46:57;12.10;99.90
11284;DHT22;5698;47.332;11.180;2022-09-09T08:49:44;12.10;99.90
11284;DHT22;5698;47.332;11.180;2022-09-09T08:52:19;12.10;99.90
11284;DHT22;5698;47.332;11.180;2022-09-09T08:54:50;12.10;99.90
11284;DHT22;5698;47.332;11.180;2022-09-09T08:57:21;12.10;99.90
11284;DHT22;5698;47.332;11.180;2022-09-09T08:59:52;12.20;99.90
11284;DHT22;5698;47.332;11.180;2022-09-09T09:02:24;12.20;99.90
11284;DHT22;5698;47.332;11.180;2022-09-09T09:05:05;12.30;99.90
11284;DHT22;5698;47.332;11.180;2022-09-09T09:07:46;12.40;99.90
11284;DHT22;5698;47.332;11.180;2022-09-09T09:10:29;12.40;99.90
11284;DHT22;5698;47.332;11.180;2022-09-09T09:12:58;12.60;99.90
11284;DHT22;5698;47.332;11.180;2022-09-09T09:15:28;12.60;99.90
11284;DHT22;5698;47.332;11.180;2022-09-09T09:17:57;12.70;99.90
11284;DHT22;5698;47.332;11.180;2022-09-09T09:20:32;12.80;99.90
11284;DHT22;5698;47.332;11.180;2022-09-09T09:23:03;12.90;99.90
11284;DHT22;5698;47.332;11.180;2022-09-09T09:25:35;12.90;99.90
11284;DHT22;5698;47.332;11.180;2022-09-09T09:28:13;13.10;99.90
11284;DHT22;5698;47.332;11.180;2022-09-09T09:30:46;13.20;99.90
11284;DHT22;5698;47.332;11.180;2022-09-09T09:33:20;13.20;99.90
11284;DHT22;5698;47.332;11.180;2022-09-09T09:35:49;13.30;99.90
11284;DHT22;5698;47.332;11.180;2022-09-09T09:38:17;13.30;99.90
11284;DHT22;5698;47.332;11.180;2022-09-09T09:40:51;13.40;99.90
11284;DHT22;5698;47.332;11.180;2022-09-09T09:43:25;13.50;99.90
11284;DHT22;5698;47.332;11.180;2022-09-09T09:45:53;13.60;99.90
11284;DHT22;5698;47.332;11.180;2022-09-09T09:48:20;13.60;99.90
11284;DHT22;5698;47.332;11.180;2022-09-09T09:50:50;13.70;99.90
11284;DHT22;5698;47.332;11.180;2022-09-09T09:53:22;13.80;99.90
11284;DHT22;5698;47.332;11.180;2022-09-09T09:55:55;13.90;99.90
11284;DHT22;5698;47.332;11.180;2022-09-09T09:58:23;14.00;99.90
11284;DHT22;5698;47.332;11.180;2022-09-09T10:00:53;13.90;99.90
11284;DHT22;5698;47.332;11.180;2022-09-09T10:03:24;13.90;99.90
11284;DHT22;5698;47.332;11.180;2022-09-09T10:05:51;13.80;99.90
11284;DHT22;5698;47.332;11.180;2022-09-09T10:08:19;13.70;99.90
11284;DHT22;5698;47.332;11.180;2022-09-09T10:11:05;13.60;99.90
11284;DHT22;5698;47.332;11.180;2022-09-09T10:13:43;13.60;99.90
11284;DHT22;5698;47.332;11.180;2022-09-09T10:16:21;13.50;99.90
11284;DHT22;5698;47.332;11.180;2022-09-09T10:18:58;13.50;99.90
11284;DHT22;5698;47.332;11.180;2022-09-09T10:21:43;13.50;99.90
11284;DHT22;5698;47.332;11.180;2022-09-09T10:24:37;13.40;99.90
11284;DHT22;5698;47.332;11.180;2022-09-09T10:27:17;13.40;99.90
11284;DHT22;5698;47.332;11.180;2022-09-09T10:29:58;13.40;99.90
11284;DHT22;5698;47.332;11.180;2022-09-09T10:32:39;13.30;99.90
11284;DHT22;5698;47.332;11.180;2022-09-09T10:35:13;13.20;99.90
11284;DHT22;5698;47.332;11.180;2022-09-09T10:38:16;13.20;99.90
11284;DHT22;5698;47.332;11.180;2022-09-09T10:40:50;13.20;99.90
11284;DHT22;5698;47.332;11.180;2022-09-09T10:43:37;13.00;99.90
11284;DHT22;5698;47.332;11.180;2022-09-09T10:46:12;13.00;99.90
11284;DHT22;5698;47.332;11.180;2022-09-09T10:48:57;13.00;99.90
11284;DHT22;5698;47.332;11.180;2022-09-09T10:51:35;13.00;99.90
11284;DHT22;5698;47.332;11.180;2022-09-09T10:54:32;13.10;99.90
11284;DHT22;5698;47.332;11.180;2022-09-09T10:57:11;13.10;99.90
11284;DHT22;5698;47.332;11.180;2022-09-09T10:59:44;13.10;99.90
11284;DHT22;5698;47.332;11.180;2022-09-09T11:02:16;13.20;99.90
11284;DHT22;5698;47.332;11.180;2022-09-09T11:04:49;13.30;99.90
11284;DHT22;5698;47.332;11.180;2022-09-09T11:07:26;13.40;99.90
11284;DHT22;5698;47.332;11.180;2022-09-09T11:09:59;13.50;99.90
11284;DHT22;5698;47.332;11.180;2022-09-09T11:12:30;13.60;99.90
11284;DHT22;5698;47.332;11.180;2022-09-09T11:15:03;13.70;99.90
11284;DHT22;5698;47.332;11.180;2022-09-09T11:17:38;13.80;99.90
11284;DHT22;5698;47.332;11.180;2022-09-09T11:20:11;13.80;99.90
11284;DHT22;5698;47.332;11.180;2022-09-09T11:22:44;13.80;99.90
11284;DHT22;5698;47.332;11.180;2022-09-09T11:25:16;13.90;99.90
11284;DHT22;5698;47.332;11.180;2022-09-09T11:27:55;14.00;99.90
11284;DHT22;5698;47.332;11.180;2022-09-09T11:30:32;14.00;99.90
11284;DHT22;5698;47.332;11.180;2022-09-09T11:33:34;14.00;99.90
11284;DHT22;5698;47.332;11.180;2022-09-09T11:36:16;14.10;99.90
11284;DHT22;5698;47.332;11.180;2022-09-09T11:38:46;14.10;99.90
11284;DHT22;5698;47.332;11.180;2022-09-09T11:41:16;14.20;99.90
11284;DHT22;5698;47.332;11.180;2022-09-09T11:43:46;14.10;99.90
11284;DHT22;5698;47.332;11.180;2022-09-09T11:46:16;14.10;99.90
11284;DHT22;5698;47.332;11.180;2022-09-09T11:48:45;14.10;99.90
11284;DHT22;5698;47.332;11.180;2022-09-09T11:51:27;14.20;99.90
11284;DHT22;5698;47.332;11.180;2022-09-09T11:53:56;14.10;99.90
11284;DHT22;5698;47.332;11.180;2022-09-09T11:56:29;14.10;99.90
11284;DHT22;5698;47.332;11.180;2022-09-09T11:58:59;14.10;99.90
11284;DHT22;5698;47.332;11.180;2022-09-09T12:01:36;14.10;99.90
11284;DHT22;5698;47.332;11.180;2022-09-09T12:04:13;14.10;99.90
11284;DHT22;5698;47.332;11.180;2022-09-09T12:06:46;14.00;99.90
11284;DHT22;5698;47.332;11.180;2022-09-09T12:09:19;14.00;99.90
11284;DHT22;5698;47.332;11.180;2022-09-09T12:11:49;14.00;99.90
11284;DHT22;5698;47.332;11.180;2022-09-09T12:14:21;14.00;99.90
11284;DHT22;5698;47.332;11.180;2022-09-09T12:16:50;14.00;99.90
11284;DHT22;5698;47.332;11.180;2022-09-09T12:19:20;14.00;99.90
11284;DHT22;5698;47.332;11.180;2022-09-09T12:21:54;14.00;99.90
11284;DHT22;5698;47.332;11.180;2022-09-09T12:24:32;14.00;99.90
11284;DHT22;5698;47.332;11.180;2022-09-09T12:27:07;14.00;99.90
11284;DHT22;5698;47.332;11.180;2022-09-09T12:29:41;14.10;99.90
11284;DHT22;5698;47.332;11.180;2022-09-09T12:32:14;14.10;99.90
11284;DHT22;5698;47.332;11.180;2022-09-09T12:34:46;14.20;99.90
11284;DHT22;5698;47.332;11.180;2022-09-09T12:37:19;14.30;99.90
11284;DHT22;5698;47.332;11.180;2022-09-09T12:39:53;14.30;99.90
11284;DHT22;5698;47.332;11.180;2022-09-09T12:42:22;14.40;99.90
11284;DHT22;5698;47.332;11.180;2022-09-09T12:44:56;14.30;99.90
11284;DHT22;5698;47.332;11.180;2022-09-09T12:47:32;14.30;99.90
11284;DHT22;5698;47.332;11.180;2022-09-09T12:50:02;14.20;99.90
11284;DHT22;5698;47.332;11.180;2022-09-09T12:52:32;14.20;99.90
11284;DHT22;5698;47.332;11.180;2022-09-09T12:55:02;14.20;99.90
11284;DHT22;5698;47.332;11.180;2022-09-09T12:57:34;14.20;99.90
11284;DHT22;5698;47.332;11.180;2022-09-09T13:00:07;14.30;99.90
11284;DHT22;5698;47.332;11.180;2022-09-09T13:02:47;14.20;99.90
11284;DHT22;5698;47.332;11.180;2022-09-09T13:05:18;14.20;99.90
11284;DHT22;5698;47.332;11.180;2022-09-09T13:07:45;14.20;99.90
11284;DHT22;5698;47.332;11.180;2022-09-09T13:10:14;14.10;99.90
11284;DHT22;5698;47.332;11.180;2022-09-09T13:12:42;14.00;99.90
11284;DHT22;5698;47.332;11.180;2022-09-09T13:15:16;14.00;99.90
11284;DHT22;5698;47.332;11.180;2022-09-09T13:17:52;14.00;99.90
11284;DHT22;5698;47.332;11.180;2022-09-09T13:20:23;13.90;99.90
11284;DHT22;5698;47.332;11.180;2022-09-09T13:22:52;13.80;99.90
11284;DHT22;5698;47.332;11.180;2022-09-09T13:25:24;13.80;99.90
11284;DHT22;5698;47.332;11.180;2022-09-09T13:27:55;13.70;99.90
11284;DHT22;5698;47.332;11.180;2022-09-09T13:30:25;13.70;99.90
11284;DHT22;5698;47.332;11.180;2022-09-09T13:33:06;13.60;99.90
11284;DHT22;5698;47.332;11.180;2022-09-09T13:35:47;13.60;99.90
11284;DHT22;5698;47.332;11.180;2022-09-09T13:38:15;13.50;99.90
11284;DHT22;5698;47.332;11.180;2022-09-09T13:40:53;13.40;99.90
11284;DHT22;5698;47.332;11.180;2022-09-09T13:43:24;13.30;99.90
11284;DHT22;5698;47.332;11.180;2022-09-09T13:45:59;13.20;99.90
11284;DHT22;5698;47.332;11.180;2022-09-09T13:48:28;13.00;99.90
11284;DHT22;5698;47.332;11.180;2022-09-09T13:51:00;12.70;99.90
11284;DHT22;5698;47.332;11.180;2022-09-09T13:53:28;12.70;99.90
11284;DHT22;5698;47.332;11.180;2022-09-09T13:55:56;12.80;99.90
11284;DHT22;5698;47.332;11.180;2022-09-09T13:58:24;12.80;99.90
11284;DHT22;5698;47.332;11.180;2022-09-09T14:00:52;12.80;99.90
11284;DHT22;5698;47.332;11.180;2022-09-09T14:03:20;12.80;99.90
11284;DHT22;5698;47.332;11.180;2022-09-09T14:05:49;12.70;99.90
11284;DHT22;5698;47.332;11.180;2022-09-09T14:08:26;12.70;99.90
11284;DHT22;5698;47.332;11.180;2022-09-09T14:11:02;12.70;99.90
11284;DHT22;5698;47.332;11.180;2022-09-09T14:13:29;12.60;99.90
11284;DHT22;5698;47.332;11.180;2022-09-09T14:15:56;12.50;99.90
11284;DHT22;5698;47.332;11.180;2022-09-09T14:18:23;12.40;99.90
11284;DHT22;5698;47.332;11.180;2022-09-09T14:20:52;12.30;99.90
11284;DHT22;5698;47.332;11.180;2022-09-09T14:23:19;12.40;99.90
11284;DHT22;5698;47.332;11.180;2022-09-09T14:25:47;12.40;99.90
11284;DHT22;5698;47.332;11.180;2022-09-09T14:28:15;12.50;99.90
11284;DHT22;5698;47.332;11.180;2022-09-09T14:30:42;12.60;99.90
11284;DHT22;5698;47.332;11.180;2022-09-09T14:33:12;12.60;99.90
11284;DHT22;5698;47.332;11.180;2022-09-09T14:35:39;12.50;99.90
11284;DHT22;5698;47.332;11.180;2022-09-09T14:38:09;12.60;99.90
11284;DHT22;5698;47.332;11.180;2022-09-09T14:40:37;12.60;99.90
11284;DHT22;5698;47.332;11.180;2022-09-09T14:43:04;12.60;99.90
11284;DHT22;5698;47.332;11.180;2022-09-09T14:45:32;12.60;99.90
11284;DHT22;5698;47.332;11.180;2022-09-09T14:47:59;12.60;99.90
11284;DHT22;5698;47.332;11.180;2022-09-09T14:50:26;12.50;99.90
11284;DHT22;5698;47.332;11.180;2022-09-09T14:52:54;12.50;99.90
11284;DHT22;5698;47.332;11.180;2022-09-09T14:55:22;12.50;99.90
11284;DHT22;5698;47.332;11.180;2022-09-09T14:57:49;12.40;99.90
11284;DHT22;5698;47.332;11.180;2022-09-09T15:00:16;12.50;99.90
11284;DHT22;5698;47.332;11.180;2022-09-09T15:02:43;12.40;99.90
11284;DHT22;5698;47.332;11.180;2022-09-09T15:05:10;12.40;99.90
11284;DHT22;5698;47.332;11.180;2022-09-09T15:07:37;12.40;99.90
11284;DHT22;5698;47.332;11.180;2022-09-09T15:10:05;12.40;99.90
11284;DHT22;5698;47.332;11.180;2022-09-09T15:12:33;12.40;99.90
11284;DHT22;5698;47.332;11.180;2022-09-09T15:15:01;12.40;99.90
11284;DHT22;5698;47.332;11.180;2022-09-09T15:17:29;12.40;99.90
11284;DHT22;5698;47.332;11.180;2022-09-09T15:19:56;12.40;99.90
11284;DHT22;5698;47.332;11.180;2022-09-09T15:22:23;12.50;99.90
11284;DHT22;5698;47.332;11.180;2022-09-09T15:24:50;12.50;99.90
11284;DHT22;5698;47.332;11.180;2022-09-09T15:27:17;12.50;99.90
11284;DHT22;5698;47.332;11.180;2022-09-09T15:29:46;12.50;99.90
11284;DHT22;5698;47.332;11.180;2022-09-09T15:32:13;12.40;99.90
11284;DHT22;5698;47.332;11.180;2022-09-09T15:34:40;12.40;99.90
11284;DHT22;5698;47.332;11.180;2022-09-09T15:37:09;12.50;99.90
11284;DHT22;5698;47.332;11.180;2022-09-09T15:39:39;12.50;99.90
11284;DHT22;5698;47.332;11.180;2022-09-09T15:42:06;12.50;99.90
11284;DHT22;5698;47.332;11.180;2022-09-09T15:44:39;12.50;99.90
11284;DHT22;5698;47.332;11.180;2022-09-09T15:47:10;12.60;99.90
11284;DHT22;5698;47.332;11.180;2022-09-09T15:49:38;12.70;99.90
11284;DHT22;5698;47.332;11.180;2022-09-09T15:52:05;12.70;99.90
11284;DHT22;5698;47.332;11.180;2022-09-09T15:54:34;12.70;99.90